createdAt,value
2023-03-27T00:00:13.241Z,55.76
2023-03-27T00:02:41.734Z,55.81
2023-03-27T00:05:10.449Z,56.65
2023-03-27T00:07:41.360Z,57.03
2023-03-27T00:10:10.099Z,57.38
2023-03-27T00:12:39.147Z,56.66
2023-03-27T00:15:09.876Z,56.56
2023-03-27T00:17:38.137Z,55.88
2023-03-27T00:20:06.986Z,55.76
2023-03-27T00:22:35.986Z,56.02
2023-03-27T00:25:04.317Z,56.63
2023-03-27T00:27:32.746Z,56.66
2023-03-27T00:30:00.577Z,57.22
2023-03-27T00:32:29.840Z,57.26
2023-03-27T00:34:57.724Z,56.88
2023-03-27T00:37:25.995Z,56.98
2023-03-27T00:39:54.117Z,57.68
2023-03-27T00:42:24.235Z,58.64
2023-03-27T00:44:53.013Z,59.90
2023-03-27T00:47:26.426Z,60.11
2023-03-27T00:49:56.919Z,60.40
2023-03-27T00:52:31.571Z,61.20
2023-03-27T00:55:04.227Z,61.75
2023-03-27T00:57:32.552Z,62.31
2023-03-27T01:00:09.584Z,62.98
2023-03-27T01:02:37.777Z,62.12
2023-03-27T01:05:08.195Z,62.25
2023-03-27T01:07:36.464Z,62.69
2023-03-27T01:10:07.491Z,62.79
2023-03-27T01:12:42.780Z,63.31
2023-03-27T01:15:22.265Z,63.63
2023-03-27T01:18:00.873Z,63.45
2023-03-27T01:21:02.347Z,61.95
2023-03-27T01:24:04.160Z,63.03
2023-03-27T01:26:57.789Z,61.22
2023-03-27T01:29:36.382Z,61.11
2023-03-27T01:32:40.163Z,62.17
2023-03-27T01:35:32.796Z,61.51
2023-03-27T01:38:54.568Z,61.87
2023-03-27T01:41:29.848Z,63.09
2023-03-27T01:44:02.645Z,61.91
2023-03-27T01:46:36.831Z,63.25
2023-03-27T01:49:09.529Z,61.77
2023-03-27T01:51:40.608Z,62.37
2023-03-27T01:54:13.637Z,62.52
2023-03-27T01:56:53.550Z,62.65
2023-03-27T01:59:24.401Z,62.09
2023-03-27T02:01:57.240Z,62.70
2023-03-27T02:04:29.850Z,64.15
2023-03-27T02:07:03.408Z,63.22
2023-03-27T02:09:35.630Z,64.75
2023-03-27T02:12:09.023Z,63.93
2023-03-27T02:14:40.717Z,64.48
2023-03-27T02:17:13.879Z,65.87
2023-03-27T02:19:48.209Z,64.10
2023-03-27T02:22:16.357Z,65.07
2023-03-27T02:24:44.335Z,64.55
2023-03-27T02:27:19.868Z,64.68
2023-03-27T02:30:01.179Z,64.82
2023-03-27T02:32:42.293Z,64.55
2023-03-27T02:35:24.164Z,65.05
2023-03-27T02:38:04.992Z,65.08
2023-03-27T02:40:43.797Z,65.73
2023-03-27T02:43:17.461Z,65.23
2023-03-27T02:45:55.835Z,66.50
2023-03-27T02:48:31.687Z,66.51
2023-03-27T02:51:04.107Z,68.19
2023-03-27T02:53:36.873Z,67.09
2023-03-27T02:56:08.145Z,67.42
2023-03-27T02:58:43.134Z,66.66
2023-03-27T03:01:13.720Z,67.00
2023-03-27T03:03:45.433Z,67.25
2023-03-27T03:06:14.339Z,68.46
2023-03-27T03:08:42.793Z,68.47
2023-03-27T03:11:14.355Z,68.77
2023-03-27T03:13:43.652Z,68.18
2023-03-27T03:16:12.107Z,67.93
2023-03-27T03:18:40.019Z,67.51
2023-03-27T03:21:08.854Z,68.15
2023-03-27T03:23:36.637Z,69.61
2023-03-27T03:26:04.911Z,68.51
2023-03-27T03:28:35.166Z,68.89
2023-03-27T03:31:04.924Z,68.92
2023-03-27T03:33:34.463Z,68.88
2023-03-27T03:36:02.398Z,68.35
2023-03-27T03:38:37.829Z,67.73
2023-03-27T03:41:06.917Z,65.59
2023-03-27T03:43:35.776Z,65.72
2023-03-27T03:46:05.393Z,64.58
2023-03-27T03:48:33.321Z,65.27
2023-03-27T03:51:01.209Z,63.79
2023-03-27T03:53:29.111Z,63.71
2023-03-27T03:55:57.613Z,63.87
2023-03-27T03:58:34.595Z,63.62
2023-03-27T04:01:05.072Z,63.63
2023-03-27T04:03:34.090Z,62.40
2023-03-27T04:06:05.620Z,62.12
2023-03-27T04:08:34.326Z,62.92
2023-03-27T04:11:02.164Z,64.38
2023-03-27T04:13:30.002Z,63.38
2023-03-27T04:16:01.754Z,63.62
2023-03-27T04:18:32.931Z,63.40
2023-03-27T04:21:01.124Z,64.66
2023-03-27T04:23:30.505Z,64.24
2023-03-27T04:26:00.164Z,64.01
2023-03-27T04:28:28.165Z,64.76
2023-03-27T04:30:56.245Z,64.93
2023-03-27T04:33:24.279Z,65.06
2023-03-27T04:36:06.084Z,63.65
2023-03-27T04:38:36.880Z,63.85
2023-03-27T04:41:05.365Z,64.25
2023-03-27T04:43:36.619Z,63.32
2023-03-27T04:46:06.164Z,64.33
2023-03-27T04:48:34.232Z,63.68
2023-03-27T04:51:03.511Z,64.40
2023-03-27T04:53:32.395Z,61.41
2023-03-27T04:56:01.342Z,60.21
2023-03-27T04:58:29.290Z,59.40
2023-03-27T05:00:58.563Z,57.88
2023-03-27T05:03:28.355Z,57.55
2023-03-27T05:05:56.302Z,56.07
2023-03-27T05:08:25.604Z,56.50
2023-03-27T05:10:53.557Z,55.38
2023-03-27T05:13:21.513Z,53.60
2023-03-27T05:15:49.401Z,54.01
2023-03-27T05:18:17.338Z,52.64
2023-03-27T05:20:48.894Z,52.98
2023-03-27T05:23:16.830Z,53.05
2023-03-27T05:26:00.152Z,52.62
2023-03-27T05:28:29.313Z,53.00
2023-03-27T05:30:58.427Z,52.77
2023-03-27T05:33:26.849Z,52.80
2023-03-27T05:35:54.822Z,53.50
2023-03-27T05:38:24.515Z,53.24
2023-03-27T05:40:53.932Z,53.65
2023-03-27T05:43:22.040Z,52.68
2023-03-27T05:45:50.196Z,51.90
2023-03-27T05:48:18.479Z,52.06
2023-03-27T05:50:47.016Z,52.52
2023-03-27T05:53:20.365Z,51.23
2023-03-27T05:56:02.361Z,50.32
2023-03-27T05:58:31.709Z,51.56
2023-03-27T06:01:00.759Z,52.04
2023-03-27T06:03:30.535Z,52.09
2023-03-27T06:06:00.338Z,52.33
2023-03-27T06:08:28.681Z,52.04
2023-03-27T06:10:58.700Z,52.10
2023-03-27T06:13:26.772Z,52.73
2023-03-27T06:15:56.307Z,52.31
2023-03-27T06:18:24.955Z,52.12
2023-03-27T06:20:52.955Z,51.43
2023-03-27T06:23:21.063Z,51.33
2023-03-27T06:25:48.936Z,51.53
2023-03-27T06:28:18.989Z,51.16
2023-03-27T06:30:48.126Z,52.51
2023-03-27T06:33:16.926Z,54.73
2023-03-27T06:35:53.415Z,55.63
2023-03-27T06:38:22.955Z,55.66
2023-03-27T06:40:51.761Z,56.04
2023-03-27T06:43:22.583Z,56.08
2023-03-27T06:45:54.800Z,56.44
2023-03-27T06:48:24.550Z,56.46
2023-03-27T06:50:54.181Z,55.83
2023-03-27T06:55:53.764Z,55.31
2023-03-27T06:58:27.408Z,55.15
2023-03-27T07:00:57.091Z,54.66
2023-03-27T07:03:25.873Z,53.71
2023-03-27T07:05:55.819Z,52.29
2023-03-27T07:08:25.547Z,49.98
2023-03-27T07:11:09.843Z,48.91
2023-03-27T07:13:42.601Z,47.75
2023-03-27T07:16:12.724Z,47.19
2023-03-27T07:18:41.927Z,47.57
2023-03-27T07:21:10.240Z,48.42
2023-03-27T07:23:38.191Z,48.28
2023-03-27T07:26:08.930Z,47.24
2023-03-27T07:28:38.752Z,47.41
2023-03-27T07:31:29.687Z,49.42
2023-03-27T07:34:02.217Z,50.58
2023-03-27T07:36:30.241Z,51.42
2023-03-27T07:38:58.877Z,52.28
2023-03-27T07:41:26.810Z,53.58
2023-03-27T07:43:54.690Z,53.30
2023-03-27T07:46:26.286Z,53.32
2023-03-27T07:48:55.547Z,53.96
2023-03-27T07:51:23.867Z,54.04
2023-03-27T07:53:56.488Z,54.70
2023-03-27T07:56:24.620Z,55.25
2023-03-27T07:58:53.235Z,55.92
2023-03-27T08:01:21.107Z,55.57
2023-03-27T08:03:50.749Z,56.37
2023-03-27T08:06:19.403Z,56.70
2023-03-27T08:08:47.401Z,57.30
2023-03-27T08:11:27.266Z,57.27
2023-03-27T08:13:58.438Z,57.65
2023-03-27T08:16:29.655Z,57.30
2023-03-27T08:19:00.780Z,57.39
2023-03-27T08:21:31.885Z,57.20
2023-03-27T08:23:59.846Z,56.73
2023-03-27T08:26:27.896Z,57.69
2023-03-27T08:28:56.306Z,57.23
2023-03-27T08:31:25.773Z,57.15
2023-03-27T08:33:53.723Z,57.08
2023-03-27T08:36:23.211Z,58.03
2023-03-27T08:38:51.568Z,58.26
2023-03-27T08:41:40.692Z,58.97
2023-03-27T08:44:14.147Z,59.18
2023-03-27T08:46:46.827Z,59.82
2023-03-27T08:49:18.408Z,58.89
2023-03-27T08:51:53.178Z,59.44
2023-03-27T08:54:24.605Z,59.43
2023-03-27T08:56:54.574Z,59.95
2023-03-27T08:59:24.282Z,57.85
2023-03-27T09:01:59.430Z,58.00
2023-03-27T09:04:41.156Z,56.95
2023-03-27T09:07:17.334Z,56.14
2023-03-27T09:09:55.841Z,54.98
2023-03-27T09:12:39.844Z,54.98
2023-03-27T09:15:14.273Z,54.41
2023-03-27T09:17:47.983Z,52.73
2023-03-27T09:20:20.447Z,51.09
2023-03-27T09:22:53.873Z,49.53
2023-03-27T09:25:28.336Z,48.85
2023-03-27T09:27:57.070Z,46.75
2023-03-27T09:30:27.924Z,46.08
2023-03-27T09:32:59.203Z,46.48
2023-03-27T09:35:27.441Z,48.63
2023-03-27T09:38:03.033Z,49.64
2023-03-27T09:40:35.850Z,49.34
2023-03-27T09:43:09.540Z,49.80
2023-03-27T09:45:40.751Z,50.44
2023-03-27T09:48:17.854Z,50.57
2023-03-27T09:50:47.553Z,50.29
2023-03-27T09:53:19.469Z,50.29
2023-03-27T09:55:53.062Z,50.32
2023-03-27T09:58:34.492Z,50.14
2023-03-27T10:01:15.876Z,50.25
2023-03-27T10:03:50.137Z,50.38
2023-03-27T10:06:27.326Z,50.66
2023-03-27T10:08:57.833Z,50.29
2023-03-27T10:11:28.844Z,50.24
2023-03-27T10:13:58.001Z,50.32
2023-03-27T10:16:27.830Z,50.65
2023-03-27T10:18:59.317Z,51.33
2023-03-27T10:21:29.998Z,52.12
2023-03-27T10:24:05.928Z,52.83
2023-03-27T10:26:38.076Z,51.44
2023-03-27T10:29:21.680Z,51.47
2023-03-27T10:31:54.158Z,51.93
2023-03-27T10:34:37.981Z,53.18
2023-03-27T10:37:21.742Z,51.92
2023-03-27T10:39:53.921Z,52.06
2023-03-27T10:42:22.848Z,52.50
2023-03-27T10:44:54.543Z,52.31
2023-03-27T10:47:26.118Z,52.96
2023-03-27T10:50:03.936Z,52.84
2023-03-27T10:52:42.275Z,52.46
2023-03-27T10:55:24.552Z,52.25
2023-03-27T10:57:56.141Z,52.15
2023-03-27T11:00:34.806Z,51.87
2023-03-27T11:03:11.442Z,51.64
2023-03-27T11:05:43.907Z,51.47
2023-03-27T11:08:16.722Z,51.00
2023-03-27T11:10:48.004Z,52.40
2023-03-27T11:13:23.346Z,54.93
2023-03-27T11:15:55.817Z,57.74
2023-03-27T11:18:26.920Z,60.19
2023-03-27T11:21:01.973Z,61.87
2023-03-27T11:23:36.502Z,63.54
2023-03-27T11:26:07.429Z,65.07
2023-03-27T11:28:43.520Z,67.10
2023-03-27T11:31:23.205Z,68.91
2023-03-27T11:33:55.975Z,70.68
2023-03-27T11:36:37.596Z,73.38
2023-03-27T11:39:16.375Z,75.11
2023-03-27T11:41:51.220Z,78.31
2023-03-27T11:44:19.207Z,79.88
2023-03-27T11:47:04.629Z,80.17
2023-03-27T11:49:50.766Z,80.74
2023-03-27T11:52:31.832Z,82.28
2023-03-27T11:55:14.600Z,85.50
2023-03-27T11:57:59.507Z,88.29
2023-03-27T12:00:36.390Z,95.58
2023-03-27T12:03:40.177Z,100.00
2023-03-27T12:06:40.904Z,100.00
2023-03-27T12:09:33.421Z,100.00
2023-03-27T12:12:28.469Z,100.00
2023-03-27T12:15:21.432Z,100.00
2023-03-27T12:18:09.052Z,100.00
2023-03-27T12:20:59.348Z,100.00
2023-03-27T12:23:54.947Z,100.00
2023-03-27T12:26:54.140Z,100.00
2023-03-27T12:29:46.787Z,100.00
2023-03-27T12:33:08.425Z,100.00
2023-03-27T12:35:48.686Z,100.00
2023-03-27T12:38:34.177Z,100.00
2023-03-27T12:41:25.390Z,100.00
2023-03-27T12:44:14.736Z,100.00
2023-03-27T12:46:47.966Z,100.00
2023-03-27T12:52:52.282Z,100.00
2023-03-27T12:55:39.949Z,100.00
2023-03-27T12:58:46.452Z,100.00
2023-03-27T13:01:45.491Z,100.00
2023-03-27T13:05:26.390Z,100.00
2023-03-27T13:08:49.173Z,100.00
2023-03-27T13:11:41.170Z,100.00
2023-03-27T13:14:45.315Z,100.00
2023-03-27T13:17:58.694Z,100.00
2023-03-27T13:27:12.846Z,100.00
2023-03-27T13:29:47.445Z,100.00
2023-03-27T13:35:43.222Z,100.00
2023-03-27T13:38:24.117Z,100.00
2023-03-27T13:43:39.557Z,100.00
2023-03-27T13:46:25.493Z,100.00
2023-03-27T13:49:14.651Z,100.00
2023-03-27T13:52:14.636Z,100.00
2023-03-27T13:54:58.561Z,100.00
2023-03-27T13:57:49.375Z,100.00
2023-03-27T14:00:48.134Z,100.00
2023-03-27T14:03:55.704Z,100.00
2023-03-27T14:07:01.382Z,100.00
2023-03-27T14:09:47.670Z,100.00
2023-03-27T14:12:26.067Z,100.00
2023-03-27T14:16:04.163Z,100.00
2023-03-27T14:19:10.917Z,100.00
2023-03-27T14:24:57.322Z,100.00
2023-03-27T14:27:32.624Z,100.00
2023-03-27T14:30:19.407Z,100.00
2023-03-27T14:32:49.254Z,100.00
2023-03-27T14:35:27.966Z,100.00
2023-03-27T14:38:00.350Z,100.00
2023-03-27T14:40:34.082Z,100.00
2023-03-27T14:43:04.268Z,100.00
2023-03-27T14:45:36.457Z,100.00
2023-03-27T14:48:07.890Z,100.00
2023-03-27T14:50:38.373Z,100.00
2023-03-27T14:53:10.982Z,100.00
2023-03-27T14:55:42.632Z,100.00
2023-03-27T14:58:18.420Z,100.00
2023-03-27T15:00:51.579Z,100.00
2023-03-27T15:03:22.956Z,100.00
2023-03-27T15:05:57.388Z,100.00
2023-03-27T15:08:28.694Z,100.00
2023-03-27T15:10:58.252Z,100.00
2023-03-27T15:13:27.238Z,100.00
2023-03-27T15:16:00.372Z,100.00
2023-03-27T15:18:33.212Z,100.00
2023-03-27T15:21:05.412Z,100.00
2023-03-27T15:23:38.454Z,100.00
2023-03-27T15:26:14.931Z,100.00
2023-03-27T15:28:53.651Z,100.00
2023-03-27T15:31:22.754Z,100.00
2023-03-27T15:34:02.413Z,100.00
2023-03-27T15:36:34.352Z,100.00
2023-03-27T15:39:04.054Z,100.00
2023-03-27T15:41:51.205Z,100.00
2023-03-27T15:44:21.936Z,100.00
2023-03-27T15:46:55.803Z,100.00
2023-03-27T15:49:30.451Z,100.00
2023-03-27T15:51:59.804Z,100.00
2023-03-27T15:54:31.416Z,100.00
2023-03-27T15:57:10.949Z,100.00
2023-03-27T15:59:52.757Z,100.00
2023-03-27T16:02:25.671Z,100.00
2023-03-27T16:04:55.936Z,100.00
2023-03-27T16:07:29.271Z,100.00
2023-03-27T16:09:59.783Z,100.00
2023-03-27T16:12:33.063Z,100.00
2023-03-27T16:15:05.758Z,100.00
2023-03-27T16:17:41.198Z,100.00
2023-03-27T16:20:40.247Z,100.00
2023-03-27T16:23:08.765Z,100.00
2023-03-27T16:25:38.028Z,100.00
2023-03-27T16:28:09.646Z,100.00
2023-03-27T16:30:41.106Z,100.00
2023-03-27T16:33:15.947Z,100.00
2023-03-27T16:35:45.318Z,100.00
2023-03-27T16:38:14.377Z,100.00
2023-03-27T16:40:54.380Z,100.00
2023-03-27T16:43:26.414Z,100.00
2023-03-27T16:45:56.146Z,100.00
2023-03-27T16:48:26.301Z,100.00
2023-03-27T16:50:54.726Z,100.00
2023-03-27T16:53:22.983Z,100.00
2023-03-27T16:55:51.747Z,100.00
2023-03-27T16:58:19.633Z,100.00
2023-03-27T17:00:52.600Z,100.00
2023-03-27T17:03:20.605Z,100.00
2023-03-27T17:05:48.451Z,100.00
2023-03-27T17:08:18.639Z,100.00
2023-03-27T17:10:46.935Z,100.00
2023-03-27T17:13:15.246Z,100.00
2023-03-27T17:15:43.218Z,100.00
2023-03-27T17:18:12.641Z,100.00
2023-03-27T17:20:40.873Z,100.00
2023-03-27T17:23:08.837Z,100.00
2023-03-27T17:25:36.710Z,100.00
2023-03-27T17:28:04.720Z,100.00
2023-03-27T17:30:39.709Z,100.00
2023-03-27T17:33:17.209Z,100.00
2023-03-27T17:35:45.110Z,100.00
2023-03-27T17:38:13.276Z,100.00
2023-03-27T17:40:42.132Z,100.00
2023-03-27T17:43:10.615Z,100.00
2023-03-27T17:45:42.765Z,100.00
2023-03-27T17:48:11.930Z,100.00
2023-03-27T17:50:41.410Z,100.00
2023-03-27T17:53:09.444Z,100.00
2023-03-27T17:55:38.824Z,100.00
2023-03-27T17:58:09.991Z,100.00
2023-03-27T18:00:39.357Z,100.00
2023-03-27T18:03:08.838Z,100.00
2023-03-27T18:05:38.514Z,100.00
2023-03-27T18:08:09.693Z,100.00
2023-03-27T18:10:37.863Z,100.00
2023-03-27T18:13:05.810Z,100.00
2023-03-27T18:15:33.713Z,100.00
2023-03-27T18:18:01.615Z,100.00
2023-03-27T18:20:29.696Z,100.00
2023-03-27T18:22:57.540Z,100.00
2023-03-27T18:25:26.845Z,100.00
2023-03-27T18:27:54.810Z,100.00
2023-03-27T18:30:23.885Z,100.00
2023-03-27T18:32:51.852Z,100.00
2023-03-27T18:35:21.485Z,100.00
2023-03-27T18:37:49.453Z,100.00
2023-03-27T18:40:19.102Z,100.00
2023-03-27T18:42:49.884Z,100.00
2023-03-27T18:45:18.292Z,100.00
2023-03-27T18:47:46.866Z,100.00
2023-03-27T18:50:15.664Z,100.00
2023-03-27T18:52:44.212Z,100.00
2023-03-27T18:55:13.095Z,100.00
2023-03-27T18:57:41.093Z,100.00
2023-03-27T19:00:18.399Z,100.00
2023-03-27T19:02:48.905Z,100.00
2023-03-27T19:05:18.305Z,100.00
2023-03-27T19:07:46.918Z,100.00
2023-03-27T19:10:15.286Z,100.00
2023-03-27T19:12:43.170Z,100.00
2023-03-27T19:15:19.983Z,100.00
2023-03-27T19:17:48.406Z,100.00
2023-03-27T19:20:16.959Z,100.00
2023-03-27T19:22:46.131Z,100.00
2023-03-27T19:25:14.123Z,100.00
2023-03-27T19:27:45.284Z,100.00
2023-03-27T19:30:15.882Z,100.00
2023-03-27T19:32:44.246Z,100.00
2023-03-27T19:35:12.336Z,100.00
2023-03-27T19:37:40.604Z,100.00
2023-03-27T19:40:10.761Z,100.00
2023-03-27T19:42:38.691Z,100.00
2023-03-27T19:45:07.468Z,100.00
2023-03-27T19:47:36.963Z,100.00
2023-03-27T19:50:06.732Z,100.00
2023-03-27T19:52:34.918Z,100.00
2023-03-27T19:55:04.050Z,100.00
2023-03-27T19:57:31.974Z,100.00
2023-03-27T20:00:00.315Z,100.00
2023-03-27T20:02:28.279Z,100.00
2023-03-27T20:04:59.161Z,100.00
2023-03-27T20:07:27.080Z,100.00
2023-03-27T20:09:57.604Z,100.00
2023-03-27T20:12:25.507Z,100.00
2023-03-27T20:15:02.957Z,100.00
2023-03-27T20:17:39.847Z,100.00
2023-03-27T20:20:11.558Z,100.00
2023-03-27T20:22:54.198Z,100.00
2023-03-27T20:25:25.435Z,100.00
2023-03-27T20:27:53.265Z,100.00
2023-03-27T20:30:21.148Z,100.00
2023-03-27T20:32:49.099Z,100.00
2023-03-27T20:35:24.175Z,100.00
2023-03-27T20:37:57.790Z,100.00
2023-03-27T20:40:26.777Z,100.00
2023-03-27T20:43:05.703Z,100.00
2023-03-27T20:45:33.661Z,100.00
2023-03-27T20:48:04.279Z,100.00
2023-03-27T20:50:35.280Z,100.00
2023-03-27T20:53:04.561Z,100.00
2023-03-27T20:55:39.391Z,100.00
2023-03-27T20:58:11.686Z,100.00
2023-03-27T21:00:39.620Z,100.00
2023-03-27T21:03:07.637Z,100.00
2023-03-27T21:05:38.397Z,100.00
2023-03-27T21:08:07.426Z,100.00
2023-03-27T21:10:36.106Z,100.00
2023-03-27T21:13:04.391Z,100.00
2023-03-27T21:15:32.494Z,100.00
2023-03-27T21:18:01.131Z,100.00
2023-03-27T21:20:29.259Z,100.00
2023-03-27T21:22:58.523Z,100.00
2023-03-27T21:25:26.377Z,100.00
2023-03-27T21:27:54.529Z,100.00
2023-03-27T21:30:23.564Z,100.00
2023-03-27T21:33:12.326Z,100.00
2023-03-27T21:35:44.016Z,100.00
2023-03-27T21:38:16.123Z,100.00
2023-03-27T21:40:44.061Z,100.00
2023-03-27T21:43:13.135Z,100.00
2023-03-27T21:45:41.921Z,100.00
2023-03-27T21:48:11.100Z,100.00
2023-03-27T21:50:39.085Z,100.00
2023-03-27T21:53:07.098Z,100.00
2023-03-27T21:55:37.483Z,100.00
2023-03-27T21:58:06.142Z,100.00
2023-03-27T22:00:34.082Z,100.00
2023-03-27T22:03:02.104Z,100.00
2023-03-27T22:05:31.385Z,100.00
2023-03-27T22:07:59.470Z,100.00
2023-03-27T22:10:27.863Z,100.00
2023-03-27T22:12:57.139Z,100.00
2023-03-27T22:15:26.018Z,100.00
2023-03-27T22:17:53.927Z,100.00
2023-03-27T22:20:22.021Z,100.00
2023-03-27T22:22:50.061Z,100.00
2023-03-27T22:25:17.897Z,100.00
2023-03-27T22:27:46.477Z,100.00
2023-03-27T22:30:15.953Z,100.00
2023-03-27T22:32:44.291Z,100.00
2023-03-27T22:35:13.276Z,100.00
2023-03-27T22:37:41.609Z,100.00
2023-03-27T22:40:10.773Z,100.00
2023-03-27T22:42:38.742Z,100.00
2023-03-27T22:45:07.586Z,100.00
2023-03-27T22:47:36.871Z,100.00
2023-03-27T22:50:06.472Z,100.00
2023-03-27T22:52:34.412Z,100.00
2023-03-27T22:55:02.277Z,100.00
2023-03-27T22:57:30.179Z,100.00
2023-03-27T22:59:58.120Z,100.00
2023-03-27T23:02:26.102Z,100.00
2023-03-27T23:04:55.477Z,100.00
2023-03-27T23:07:23.365Z,100.00
2023-03-27T23:09:51.684Z,100.00
2023-03-27T23:12:19.560Z,100.00
2023-03-27T23:14:47.397Z,100.00
2023-03-27T23:17:15.385Z,100.00
2023-03-27T23:19:43.289Z,100.00
2023-03-27T23:22:12.552Z,100.00
2023-03-27T23:24:40.389Z,100.00
2023-03-27T23:27:08.572Z,100.00
2023-03-27T23:29:36.489Z,100.00
2023-03-27T23:32:04.336Z,100.00
2023-03-27T23:34:32.492Z,100.00
2023-03-27T23:37:00.334Z,100.00
2023-03-27T23:39:29.702Z,100.00
2023-03-27T23:41:57.535Z,100.00
2023-03-27T23:44:25.619Z,100.00
2023-03-27T23:46:53.497Z,100.00
2023-03-27T23:49:21.575Z,100.00
2023-03-27T23:51:49.457Z,100.00
2023-03-27T23:54:17.355Z,100.00
2023-03-27T23:56:46.668Z,100.00
2023-03-27T23:59:14.742Z,100.00
